Time;durP1;ratioP1;P1;durP2;ratioP2;P2;SDS_P1;SDS_P2;PMS_P1;PMS_P2;Temp;Humidity;BMP_temperature;BMP_pressure;BME280_temperature;BME280_humidity;BME280_pressure;Samples;Min_cycle;Max_cycle;Signal;HPM_P1;HPM_P2
2023/03/26 00:01:12;;;;;;;;;;;;;;;8.36;82.51;99777.66;4135234;28;20662;-64
2023/03/26 00:03:15;;;;;;;;;;;;;;;8.36;82.49;99780.34;4135962;28;20020;-64
2023/03/26 00:05:18;;;;;;;;;;;;;;;8.36;82.06;99777.66;4141594;28;20021;-64
2023/03/26 00:07:23;;;;;;;;;;;;;;;8.34;82.32;99780.53;4135145;28;20016;-64
2023/03/26 00:09:25;;;;;;;;;;;;;;;8.35;82.28;99789.44;4135121;28;20798;-64
2023/03/26 00:11:30;;;;;;;;;;;;;;;8.34;81.99;99787.75;4134892;28;20020;-64
2023/03/26 00:13:32;;;;;;;;;;;;;;;8.36;82.18;99796.50;4134628;28;20020;-64
2023/03/26 00:15:34;;;;;;;;;;;;;;;8.34;81.64;99790.44;4135351;28;20052;-63
2023/03/26 00:17:36;;;;;;;;;;;;;;;8.36;82.01;99797.31;4134835;28;20024;-64
2023/03/26 00:19:46;;;;;;;;;;;;;;;8.39;81.63;99799.63;4135365;28;19925;-65
2023/03/26 00:21:51;;;;;;;;;;;;;;;8.39;81.49;99799.63;4137106;28;20009;-65
2023/03/26 00:23:54;;;;;;;;;;;;;;;8.37;81.46;99799.00;4140247;28;20467;-65
2023/03/26 00:25:59;;;;;;;;;;;;;;;8.37;81.34;99784.69;4141702;28;19937;-64
2023/03/26 00:28:02;;;;;;;;;;;;;;;8.35;80.83;99797.50;4140198;28;20016;-65
2023/03/26 00:30:05;;;;;;;;;;;;;;;8.35;81.00;99795.63;4141374;28;20451;-62
2023/03/26 00:32:10;;;;;;;;;;;;;;;8.30;80.68;99796.19;4145882;28;20398;-64
2023/03/26 00:34:14;;;;;;;;;;;;;;;8.30;80.62;99800.75;4140348;28;20370;-65
2023/03/26 00:36:18;;;;;;;;;;;;;;;8.34;80.40;99809.28;4141752;28;20024;-65
2023/03/26 00:38:22;;;;;;;;;;;;;;;8.34;80.17;99807.44;4130183;28;19926;-63
2023/03/26 00:40:24;;;;;;;;;;;;;;;8.34;79.99;99807.44;4132094;28;20328;-64
2023/03/26 00:42:26;;;;;;;;;;;;;;;8.36;79.88;99801.88;4146400;28;20013;-64
2023/03/26 00:44:28;;;;;;;;;;;;;;;8.34;80.05;99801.19;4140088;28;20044;-65
2023/03/26 00:46:31;;;;;;;;;;;;;;;8.33;79.92;99791.47;4139946;28;20024;-64
2023/03/26 00:48:33;;;;;;;;;;;;;;;8.32;80.06;99797.88;4140556;28;20024;-64
2023/03/26 00:50:35;;;;;;;;;;;;;;;8.30;80.17;99795.38;4146550;28;20024;-64
2023/03/26 00:52:37;;;;;;;;;;;;;;;8.30;80.49;99801.56;4139789;28;20004;-64
2023/03/26 00:54:41;;;;;;;;;;;;;;;8.30;80.45;99798.88;4140749;28;20024;-64
2023/03/26 00:56:43;;;;;;;;;;;;;;;8.32;80.41;99804.06;4138766;28;20032;-63
2023/03/26 00:58:46;;;;;;;;;;;;;;;8.31;80.21;99799.72;4162169;28;20016;-63
2023/03/26 01:00:50;;;;;;;;;;;;;;;8.29;80.24;99797.22;4139991;28;19925;-64
2023/03/26 01:02:54;;;;;;;;;;;;;;;8.29;80.18;99799.06;4139958;28;20012;-65
2023/03/26 01:05:01;;;;;;;;;;;;;;;8.27;80.14;99791.19;4140839;28;20356;-64
2023/03/26 01:07:05;;;;;;;;;;;;;;;8.29;80.06;99813.38;4140867;28;20031;-64
2023/03/26 01:09:10;;;;;;;;;;;;;;;8.32;79.84;99798.69;4140984;28;20015;-63
2023/03/26 01:11:14;;;;;;;;;;;;;;;8.29;80.12;99805.31;4140900;28;20025;-63
2023/03/26 01:13:17;;;;;;;;;;;;;;;8.27;80.09;99809.19;4129499;28;20008;-60
2023/03/26 01:15:20;;;;;;;;;;;;;;;8.24;80.22;99818.44;4124200;28;20016;-62
2023/03/26 01:17:23;;;;;;;;;;;;;;;8.25;80.44;99814.75;4124584;28;20008;-63
2023/03/26 01:19:29;;;;;;;;;;;;;;;8.25;80.20;99812.06;4129033;28;20017;-61
2023/03/26 01:21:33;;;;;;;;;;;;;;;8.24;80.39;99820.31;4123545;28;19926;-60
2023/03/26 01:23:43;;;;;;;;;;;;;;;8.24;80.61;99818.44;4123411;28;20046;-63
2023/03/26 01:25:48;;;;;;;;;;;;;;;8.22;81.36;99815.13;4124226;28;20028;-63
2023/03/26 01:27:50;;;;;;;;;;;;;;;8.22;81.08;99828.56;4146163;28;20390;-64
2023/03/26 01:29:53;;;;;;;;;;;;;;;8.20;81.44;99824.41;4123179;28;20017;-63
2023/03/26 01:31:57;;;;;;;;;;;;;;;8.22;81.73;99828.56;4154494;28;20570;-61
2023/03/26 01:34:01;;;;;;;;;;;;;;;8.23;81.78;99824.88;4123862;28;20013;-63
2023/03/26 01:36:04;;;;;;;;;;;;;;;8.24;82.09;99825.69;4123667;28;20021;-63
2023/03/26 01:38:12;;;;;;;;;;;;;;;8.25;82.16;99825.50;4123375;28;20017;-63
2023/03/26 01:40:15;;;;;;;;;;;;;;;8.27;82.66;99820.78;4129658;28;20020;-62
2023/03/26 01:42:19;;;;;;;;;;;;;;;8.29;82.15;99815.19;4123272;28;19936;-61
2023/03/26 01:44:23;;;;;;;;;;;;;;;8.28;82.34;99808.19;4123896;28;20379;-63
2023/03/26 01:46:25;;;;;;;;;;;;;;;8.25;82.11;99813.91;4123900;28;20029;-61
2023/03/26 01:48:30;;;;;;;;;;;;;;;8.25;82.24;99822.81;4122677;28;20296;-62
2023/03/26 01:50:31;;;;;;;;;;;;;;;8.26;82.46;99804.81;4123612;28;20028;-62
2023/03/26 01:52:34;;;;;;;;;;;;;;;8.25;82.66;99814.75;4128912;28;20005;-63
2023/03/26 01:54:36;;;;;;;;;;;;;;;8.25;82.21;99824.69;4123652;28;20025;-62
2023/03/26 01:56:40;;;;;;;;;;;;;;;8.27;82.50;99830.69;4123198;28;20056;-62
2023/03/26 01:58:47;;;;;;;;;;;;;;;8.28;82.11;99843.97;4123770;28;20021;-61
2023/03/26 02:00:50;;;;;;;;;;;;;;;8.28;82.22;99827.81;4129345;28;20385;-64
2023/03/26 02:02:56;;;;;;;;;;;;;;;8.25;82.43;99835.44;4122704;28;20411;-59
2023/03/26 02:05:03;;;;;;;;;;;;;;;8.19;82.63;99833.47;4129223;28;20022;-59
2023/03/26 02:07:06;;;;;;;;;;;;;;;8.16;82.78;99823.09;4129127;28;20016;-60
2023/03/26 02:09:09;;;;;;;;;;;;;;;8.16;82.56;99823.09;4145572;28;20340;-60
2023/03/26 02:11:12;;;;;;;;;;;;;;;8.13;82.16;99826.97;4129351;28;20460;-62
2023/03/26 02:13:14;;;;;;;;;;;;;;;8.09;82.41;99829.19;4121445;28;20037;-61
2023/03/26 02:15:18;;;;;;;;;;;;;;;8.09;82.49;99829.19;4123043;28;20029;-63
2023/03/26 02:17:22;;;;;;;;;;;;;;;8.08;83.06;99824.00;4123039;28;20499;-63
2023/03/26 02:19:25;;;;;;;;;;;;;;;8.06;83.26;99820.69;4145268;28;20028;-62
2023/03/26 02:21:27;;;;;;;;;;;;;;;8.06;83.25;99818.00;4121588;28;20448;-61
2023/03/26 02:23:29;;;;;;;;;;;;;;;8.03;82.98;99811.09;4123003;28;20385;-60
2023/03/26 02:25:34;;;;;;;;;;;;;;;7.95;82.98;99821.94;4127885;28;20037;-62
2023/03/26 02:27:36;;;;;;;;;;;;;;;7.93;83.57;99822.13;4144917;28;20526;-61
2023/03/26 02:29:38;;;;;;;;;;;;;;;7.94;83.28;99818.41;4122007;28;20451;-61
2023/03/26 02:31:42;;;;;;;;;;;;;;;7.97;83.20;99819.91;4120346;28;20009;-59
2023/03/26 02:33:46;;;;;;;;;;;;;;;8.00;83.02;99821.41;4123258;28;20060;-63
2023/03/26 02:35:49;;;;;;;;;;;;;;;7.99;82.78;99815.16;4121968;28;20032;-63
2023/03/26 02:37:51;;;;;;;;;;;;;;;7.99;82.58;99820.56;4144676;28;20036;-61
2023/03/26 02:39:56;;;;;;;;;;;;;;;7.98;82.49;99823.41;4154046;28;20133;-63
2023/03/26 02:42:06;;;;;;;;;;;;;;;7.94;82.45;99823.78;4121981;28;20479;-63
2023/03/26 02:44:14;;;;;;;;;;;;;;;7.96;82.35;99817.41;4153149;28;20027;-63
2023/03/26 02:46:34;;;;;;;;;;;;;;;7.94;82.38;99825.66;4121972;28;20614;-60
2023/03/26 02:48:54;;;;;;;;;;;;;;;7.93;82.69;99823.97;4121580;28;20017;-60
2023/03/26 02:51:00;;;;;;;;;;;;;;;7.93;82.88;99823.97;4145108;28;20012;-62
2023/03/26 02:53:14;;;;;;;;;;;;;;;7.93;82.80;99818.59;4122218;28;20016;-62
2023/03/26 02:55:19;;;;;;;;;;;;;;;7.91;83.05;99826.84;4112472;28;19969;-64
2023/03/26 02:57:23;;;;;;;;;;;;;;;7.92;82.93;99825.81;4152869;28;20032;-63
2023/03/26 02:59:41;;;;;;;;;;;;;;;7.94;82.92;99820.28;4128352;28;20025;-63
2023/03/26 03:02:02;;;;;;;;;;;;;;;7.95;82.90;99832.72;4122407;28;20013;-63
2023/03/26 03:04:13;;;;;;;;;;;;;;;7.93;82.95;99840.09;4123110;28;20041;-61
2023/03/26 03:06:17;;;;;;;;;;;;;;;7.91;82.80;99828.69;4128409;28;20452;-62
2023/03/26 03:08:28;;;;;;;;;;;;;;;7.89;82.86;99838.81;4127144;28;21402;-62
2023/03/26 03:10:42;;;;;;;;;;;;;;;7.88;82.95;99824.53;4122926;28;20369;-62
2023/03/26 03:12:51;;;;;;;;;;;;;;;7.88;83.32;99829.06;4143744;28;20415;-60
2023/03/26 03:14:53;;;;;;;;;;;;;;;7.87;83.39;99830.09;4127361;28;20037;-61
2023/03/26 03:16:57;;;;;;;;;;;;;;;7.85;83.04;99838.34;4127753;28;20016;-61
2023/03/26 03:19:00;;;;;;;;;;;;;;;7.85;83.08;99842.88;4136829;28;20016;-63
2023/03/26 03:21:12;;;;;;;;;;;;;;;7.86;83.28;99834.63;4128446;28;20024;-59
2023/03/26 03:23:14;;;;;;;;;;;;;;;7.90;83.11;99835.94;4121907;28;20017;-61
2023/03/26 03:25:16;;;;;;;;;;;;;;;7.89;83.05;99845.00;4120740;28;19941;-61
2023/03/26 03:27:22;;;;;;;;;;;;;;;7.88;83.11;99843.38;4120877;28;20089;-63
2023/03/26 03:29:32;;;;;;;;;;;;;;;7.89;83.01;99850.38;4127643;28;20024;-63
2023/03/26 03:31:47;;;;;;;;;;;;;;;7.89;83.35;99845.00;4134866;28;20495;-61
2023/03/26 03:34:05;;;;;;;;;;;;;;;7.86;83.29;99842.69;4136976;28;20394;-61
2023/03/26 03:36:13;;;;;;;;;;;;;;;7.89;83.59;99852.25;4120295;28;20020;-62
2023/03/26 03:38:15;;;;;;;;;;;;;;;7.90;83.71;99846.69;4121798;28;20056;-60
2023/03/26 03:40:22;;;;;;;;;;;;;;;7.91;83.81;99848.34;4121312;28;20096;-63
2023/03/26 03:42:27;;;;;;;;;;;;;;;7.89;83.62;99854.94;4119672;28;20016;-62
2023/03/26 03:44:32;;;;;;;;;;;;;;;7.87;83.83;99856.97;4121525;28;20486;-62
2023/03/26 03:46:36;;;;;;;;;;;;;;;7.81;84.14;99860.41;4127585;28;19930;-60
2023/03/26 03:48:39;;;;;;;;;;;;;;;7.78;84.57;99858.06;4128115;28;20021;-60
2023/03/26 03:50:42;;;;;;;;;;;;;;;7.77;84.63;99862.59;4127678;28;20036;-61
2023/03/26 03:53:08;;;;;;;;;;;;;;;7.79;85.42;99857.88;4127644;28;20020;-60
2023/03/26 03:55:12;;;;;;;;;;;;;;;7.79;85.09;99859.72;4128100;28;20025;-61
2023/03/26 03:57:23;;;;;;;;;;;;;;;7.78;85.35;99861.59;4135624;28;20347;-62
2023/03/26 03:59:32;;;;;;;;;;;;;;;7.81;85.29;99865.78;4127974;28;20016;-63
2023/03/26 04:01:37;;;;;;;;;;;;;;;7.83;85.10;99861.88;4120165;28;20017;-62
2023/03/26 04:03:45;;;;;;;;;;;;;;;7.86;84.89;99866.06;4152881;28;20403;-62
2023/03/26 04:05:53;;;;;;;;;;;;;;;7.87;84.70;99863.19;4152488;28;20442;-62
2023/03/26 04:07:59;;;;;;;;;;;;;;;7.90;84.67;99862.00;4143031;28;20442;-60
2023/03/26 04:10:02;;;;;;;;;;;;;;;7.93;84.50;99867.00;4121626;28;20016;-62
2023/03/26 04:12:20;;;;;;;;;;;;;;;7.92;83.76;99870.72;4127273;28;20020;-62
2023/03/26 04:14:33;;;;;;;;;;;;;;;7.92;83.85;99874.22;4152904;28;20493;-63
2023/03/26 04:16:37;;;;;;;;;;;;;;;7.92;84.01;99876.91;4120433;28;20483;-59
2023/03/26 04:18:40;;;;;;;;;;;;;;;7.87;84.10;99867.75;4123499;28;20122;-61
2023/03/26 04:20:48;;;;;;;;;;;;;;;7.85;84.03;99875.97;4121892;28;20028;-63
2023/03/26 04:23:00;;;;;;;;;;;;;;;7.87;84.16;99867.75;4118484;28;20008;-62
2023/03/26 04:25:04;;;;;;;;;;;;;;;7.88;83.87;99867.56;4135909;28;20633;-63
2023/03/26 04:27:27;;;;;;;;;;;;;;;7.88;84.03;99875.63;4115267;28;20334;-64
2023/03/26 04:29:41;;;;;;;;;;;;;;;7.85;83.93;99869.75;4120655;28;20025;-61
2023/03/26 04:31:49;;;;;;;;;;;;;;;7.84;84.30;99874.31;4120413;28;20033;-63
2023/03/26 04:33:54;;;;;;;;;;;;;;;7.87;84.41;99878.50;4127557;28;20016;-62
2023/03/26 04:36:01;;;;;;;;;;;;;;;7.85;84.26;99870.59;4127859;28;20033;-63
2023/03/26 04:38:05;;;;;;;;;;;;;;;7.85;84.10;99872.44;4127570;28;20064;-63
2023/03/26 04:40:13;;;;;;;;;;;;;;;7.83;84.22;99872.63;4120040;28;20025;-63
2023/03/26 04:42:32;;;;;;;;;;;;;;;7.80;84.26;99874.84;4119205;28;20034;-63
2023/03/26 04:44:49;;;;;;;;;;;;;;;7.79;84.39;99875.84;4119993;28;20020;-62
2023/03/26 04:46:54;;;;;;;;;;;;;;;7.82;84.16;99876.34;4119942;28;20376;-61
2023/03/26 04:49:02;;;;;;;;;;;;;;;7.84;84.10;99876.16;4120221;28;20028;-63
2023/03/26 04:51:06;;;;;;;;;;;;;;;7.85;83.81;99880.50;4127523;28;20494;-56
2023/03/26 04:53:09;;;;;;;;;;;;;;;7.83;83.99;99874.47;4120655;28;20005;-61
2023/03/26 04:55:35;;;;;;;;;;;;;;;7.83;83.86;99874.47;4105713;28;20684;-59
2023/03/26 04:57:45;;;;;;;;;;;;;;;7.82;83.80;99876.34;4143456;28;20020;-62
2023/03/26 04:59:56;;;;;;;;;;;;;;;7.84;83.90;99871.63;4143779;28;20028;-61
2023/03/26 05:01:59;;;;;;;;;;;;;;;7.84;84.20;99871.63;4135692;28;20029;-61
2023/03/26 05:04:03;;;;;;;;;;;;;;;7.85;83.93;99869.75;4127008;28;20459;-60
2023/03/26 05:06:05;;;;;;;;;;;;;;;7.84;83.93;99876.16;4127631;28;20032;-61
2023/03/26 05:08:07;;;;;;;;;;;;;;;7.81;84.05;99863.91;4127144;28;20061;-61
2023/03/26 05:10:11;;;;;;;;;;;;;;;7.79;84.16;99865.94;4130410;28;20036;-61
2023/03/26 05:12:41;;;;;;;;;;;;;;;7.80;84.21;99878.34;4122708;28;19926;-64
2023/03/26 05:14:47;;;;;;;;;;;;;;;7.79;84.24;99868.63;4124285;28;20021;-63
2023/03/26 05:16:54;;;;;;;;;;;;;;;7.80;84.51;99869.47;4138347;28;20013;-63
2023/03/26 05:18:56;;;;;;;;;;;;;;;7.80;84.43;99870.28;4137192;28;20016;-60
2023/03/26 05:21:02;;;;;;;;;;;;;;;7.80;84.44;99875.66;4139310;28;20027;-60
2023/03/26 05:23:06;;;;;;;;;;;;;;;7.82;84.19;99872.81;4128989;28;20032;-62
2023/03/26 05:25:11;;;;;;;;;;;;;;;7.83;84.20;99872.63;4129697;28;20056;-61
2023/03/26 05:27:13;;;;;;;;;;;;;;;7.84;84.03;99874.31;4145295;28;20008;-62
2023/03/26 05:29:17;;;;;;;;;;;;;;;7.85;83.88;99870.59;4154567;28;20024;-63
2023/03/26 05:31:23;;;;;;;;;;;;;;;7.86;83.45;99874.13;4146046;28;20040;-61
2023/03/26 05:33:28;;;;;;;;;;;;;;;7.88;83.32;99869.38;4154147;28;19949;-61
2023/03/26 05:35:43;;;;;;;;;;;;;;;7.86;83.24;99880.31;4128683;28;20032;-63
2023/03/26 05:37:45;;;;;;;;;;;;;;;7.86;82.95;99872.25;4122339;28;20021;-64
2023/03/26 05:39:47;;;;;;;;;;;;;;;7.87;83.22;99878.50;4123956;28;20045;-62
2023/03/26 05:41:49;;;;;;;;;;;;;;;7.85;82.95;99877.81;4122439;28;21704;-63
2023/03/26 05:43:53;;;;;;;;;;;;;;;7.77;82.96;99873.34;4154066;28;20021;-61
2023/03/26 05:46:03;;;;;;;;;;;;;;;7.83;83.27;99882.53;4129795;28;20024;-62
2023/03/26 05:48:07;;;;;;;;;;;;;;;7.84;83.21;99878.84;4128266;28;20024;-61
2023/03/26 05:50:09;;;;;;;;;;;;;;;7.84;83.18;99884.22;4129452;28;20125;-62
2023/03/26 05:52:17;;;;;;;;;;;;;;;7.85;83.25;99884.06;4129771;28;20021;-63
2023/03/26 05:54:39;;;;;;;;;;;;;;;7.83;83.15;99891.44;4122968;28;20412;-63
2023/03/26 05:57:00;;;;;;;;;;;;;;;7.80;82.98;99882.91;4123812;28;20017;-63
2023/03/26 05:59:20;;;;;;;;;;;;;;;7.81;83.34;99885.41;4124333;28;20028;-63
2023/03/26 06:01:43;;;;;;;;;;;;;;;7.83;83.23;99878.00;4123327;28;20434;-65
2023/03/26 06:04:23;;;;;;;;;;;;;;;7.86;83.36;99890.25;4123486;28;20005;-61
2023/03/26 06:06:45;;;;;;;;;;;;;;;7.87;83.14;99884.69;4122567;28;20016;-62
2023/03/26 06:08:49;;;;;;;;;;;;;;;7.89;83.03;99885.34;4153735;28;20028;-63
2023/03/26 06:10:57;;;;;;;;;;;;;;;7.91;83.24;99888.69;4144696;28;20028;-64
2023/03/26 06:12:59;;;;;;;;;;;;;;;7.90;83.11;99880.81;4153469;28;20083;-63
2023/03/26 06:15:01;;;;;;;;;;;;;;;7.90;83.53;99884.34;4122711;28;19926;-63
2023/03/26 06:17:24;;;;;;;;;;;;;;;7.87;83.53;99886.56;4154918;28;20013;-62
2023/03/26 06:19:46;;;;;;;;;;;;;;;7.85;84.01;99881.38;4122694;28;20419;-62
2023/03/26 06:21:57;;;;;;;;;;;;;;;7.87;84.16;99883.88;4123219;28;20020;-60
2023/03/26 06:24:20;;;;;;;;;;;;;;;7.87;84.18;99890.06;4127419;28;19940;-63
2023/03/26 06:26:40;;;;;;;;;;;;;;;7.90;84.32;99883.50;4123477;28;20652;-63
2023/03/26 06:28:55;;;;;;;;;;;;;;;7.92;84.32;99895.72;4123025;28;20012;-62
2023/03/26 06:31:29;;;;;;;;;;;;;;;7.93;83.81;99893.88;4110549;28;20795;-62
2023/03/26 06:33:53;;;;;;;;;;;;;;;7.94;83.75;99898.25;4128278;28;20013;-60
2023/03/26 06:35:55;;;;;;;;;;;;;;;7.94;83.77;99887.50;4128291;28;19998;-63
2023/03/26 06:37:57;;;;;;;;;;;;;;;7.95;83.53;99894.56;4120332;28;20013;-61
2023/03/26 06:40:00;;;;;;;;;;;;;;;7.98;83.70;99904.09;4152816;28;20024;-61
2023/03/26 06:42:22;;;;;;;;;;;;;;;8.00;83.35;99899.38;4120929;28;20458;-63
2023/03/26 06:44:53;;;;;;;;;;;;;;;8.03;83.33;99907.09;4115694;28;20012;-63
2023/03/26 06:47:33;;;;;;;;;;;;;;;8.04;83.39;99898.84;4124976;28;20024;-64
2023/03/26 06:50:10;;;;;;;;;;;;;;;8.05;83.03;99903.19;4119313;28;20015;-61
2023/03/26 06:52:32;;;;;;;;;;;;;;;8.04;82.59;99906.91;4128460;28;20009;-63
2023/03/26 06:54:53;;;;;;;;;;;;;;;8.05;82.47;99903.19;4138800;28;20211;-64
2023/03/26 06:57:27;;;;;;;;;;;;;;;8.03;82.21;99904.41;4119041;28;19937;-63
2023/03/26 06:59:52;;;;;;;;;;;;;;;8.04;82.05;99909.59;4105945;28;20371;-64
2023/03/26 07:02:20;;;;;;;;;;;;;;;8.02;80.57;99914.31;4105080;28;20008;-63
2023/03/26 07:04:41;;;;;;;;;;;;;;;8.04;80.67;99916.81;4128676;28;20060;-63
2023/03/26 07:07:03;;;;;;;;;;;;;;;8.05;80.36;99913.94;4125988;28;20030;-60
2023/03/26 07:09:25;;;;;;;;;;;;;;;8.07;79.91;99911.94;4121795;28;20025;-61
2023/03/26 07:11:45;;;;;;;;;;;;;;;8.10;79.43;99908.03;4121667;28;20020;-62
2023/03/26 07:14:06;;;;;;;;;;;;;;;8.11;79.53;99897.09;4121790;28;20021;-63
2023/03/26 07:16:21;;;;;;;;;;;;;;;8.12;78.80;99906.00;4118788;28;20029;-64
2023/03/26 07:18:43;;;;;;;;;;;;;;;8.15;78.60;99899.41;4142366;28;20045;-63
2023/03/26 07:20:48;;;;;;;;;;;;;;;8.14;78.95;99898.59;4143423;28;20024;-64
2023/03/26 07:22:55;;;;;;;;;;;;;;;8.18;78.81;99896.34;4141408;28;20598;-63
2023/03/26 07:25:16;;;;;;;;;;;;;;;8.19;79.19;99895.34;4136660;28;20396;-63
2023/03/26 07:27:23;;;;;;;;;;;;;;;8.18;79.47;99902.59;4120999;28;20045;-64
2023/03/26 07:29:27;;;;;;;;;;;;;;;8.18;79.51;99897.22;4153030;28;20021;-61
2023/03/26 07:31:40;;;;;;;;;;;;;;;8.18;80.05;99894.53;4126994;28;22950;-63
2023/03/26 07:34:22;;;;;;;;;;;;;;;8.22;80.17;99897.69;4087651;29;20021;-63
2023/03/26 07:36:37;;;;;;;;;;;;;;;8.24;80.28;99901.84;4105978;28;20581;-62
2023/03/26 07:39:10;;;;;;;;;;;;;;;8.26;80.27;99907.91;4119092;28;19926;-60
2023/03/26 07:41:26;;;;;;;;;;;;;;;8.30;79.99;99909.19;4127752;28;20043;-62
2023/03/26 07:44:03;;;;;;;;;;;;;;;8.35;79.49;99903.25;4127099;28;20530;-59
2023/03/26 07:46:08;;;;;;;;;;;;;;;8.38;78.50;99908.28;4122110;28;19969;-60
2023/03/26 07:48:48;;;;;;;;;;;;;;;8.38;77.67;99910.13;4142227;28;20537;-63
2023/03/26 07:51:17;;;;;;;;;;;;;;;8.37;77.14;99911.16;4141860;28;20024;-63
2023/03/26 07:53:48;;;;;;;;;;;;;;;8.35;76.57;99908.63;4109892;28;20522;-60
2023/03/26 07:56:13;;;;;;;;;;;;;;;8.34;76.28;99901.59;4128088;28;20029;-64
2023/03/26 07:58:44;;;;;;;;;;;;;;;8.37;76.73;99916.53;4118200;28;20432;-60
2023/03/26 08:01:06;;;;;;;;;;;;;;;8.37;76.56;99898.53;4120864;28;20025;-61
2023/03/26 08:03:11;;;;;;;;;;;;;;;8.38;75.96;99907.44;4139742;28;20503;-62
2023/03/26 08:05:30;;;;;;;;;;;;;;;8.34;76.05;99900.75;4137141;28;20024;-60
2023/03/26 08:07:54;;;;;;;;;;;;;;;8.39;75.33;99901.06;4136518;28;20009;-61
2023/03/26 08:10:01;;;;;;;;;;;;;;;8.40;75.10;99900.00;4142186;28;20051;-63
2023/03/26 08:12:22;;;;;;;;;;;;;;;8.41;75.02;99907.91;4134877;28;20020;-64
2023/03/26 08:14:27;;;;;;;;;;;;;;;8.44;74.89;99901.38;4137058;28;20024;-63
2023/03/26 08:16:31;;;;;;;;;;;;;;;8.45;74.46;99906.56;4135982;28;20021;-64
2023/03/26 08:18:40;;;;;;;;;;;;;;;8.44;73.60;99902.19;4138139;28;20029;-62
2023/03/26 08:20:43;;;;;;;;;;;;;;;8.43;73.66;99905.03;4137249;28;20009;-62
2023/03/26 08:22:49;;;;;;;;;;;;;;;8.41;73.48;99907.91;4137098;28;20032;-63
2023/03/26 08:24:58;;;;;;;;;;;;;;;8.38;73.65;99902.06;4136988;28;20535;-62
2023/03/26 08:27:01;;;;;;;;;;;;;;;8.35;73.78;99892.50;4136725;28;20001;-64
2023/03/26 08:29:07;;;;;;;;;;;;;;;8.35;74.04;99900.56;4137456;28;19997;-63
2023/03/26 08:31:10;;;;;;;;;;;;;;;8.36;73.94;99898.72;4137135;28;20009;-62
2023/03/26 08:33:12;;;;;;;;;;;;;;;8.37;73.95;99890.47;4137938;28;20056;-61
2023/03/26 08:35:14;;;;;;;;;;;;;;;8.38;73.75;99896.69;4138188;28;20016;-63
2023/03/26 08:37:16;;;;;;;;;;;;;;;8.38;73.94;99896.69;4137202;28;20036;-62
2023/03/26 08:39:21;;;;;;;;;;;;;;;8.39;74.68;99898.38;4137184;28;20024;-64
2023/03/26 08:41:38;;;;;;;;;;;;;;;8.35;74.95;99889.81;4137742;28;20016;-62
2023/03/26 08:44:01;;;;;;;;;;;;;;;8.32;75.51;99894.72;4137514;28;20042;-63
2023/03/26 08:46:19;;;;;;;;;;;;;;;8.30;75.74;99893.03;4140586;28;20426;-63
2023/03/26 08:48:39;;;;;;;;;;;;;;;8.30;76.39;99902.97;4139302;28;20174;-64
2023/03/26 08:51:00;;;;;;;;;;;;;;;8.34;76.17;99889.97;4141458;28;19937;-62
2023/03/26 08:53:23;;;;;;;;;;;;;;;8.34;76.24;99895.38;4140108;28;19937;-62
2023/03/26 08:55:37;;;;;;;;;;;;;;;8.33;76.61;99891.84;4134716;28;20024;-63
2023/03/26 08:57:45;;;;;;;;;;;;;;;8.32;76.55;99889.34;4140374;28;20016;-62
2023/03/26 08:59:59;;;;;;;;;;;;;;;8.32;76.54;99887.47;4140908;28;20491;-64
2023/03/26 09:02:13;;;;;;;;;;;;;;;8.35;76.85;99886.28;4140864;28;20022;-63
2023/03/26 09:04:30;;;;;;;;;;;;;;;8.36;76.77;99882.59;4141130;28;20031;-63
2023/03/26 09:06:50;;;;;;;;;;;;;;;8.38;77.07;99878.66;4139347;28;20032;-63
2023/03/26 09:09:06;;;;;;;;;;;;;;;8.43;76.58;99878.13;4131805;28;20016;-62
2023/03/26 09:11:19;;;;;;;;;;;;;;;8.45;76.51;99878.81;4145479;28;19926;-63
2023/03/26 09:13:28;;;;;;;;;;;;;;;8.47;76.16;99879.47;4128315;28;20658;-63
2023/03/26 09:15:53;;;;;;;;;;;;;;;8.48;76.46;99868.53;4128694;28;20024;-62
2023/03/26 09:18:25;;;;;;;;;;;;;;;8.52;76.38;99868.97;4138004;28;19965;-62
2023/03/26 09:20:37;;;;;;;;;;;;;;;8.55;75.88;99868.59;4105270;28;20157;-63
2023/03/26 09:22:54;;;;;;;;;;;;;;;8.55;75.18;99879.38;4126037;28;20024;-64
2023/03/26 09:25:12;;;;;;;;;;;;;;;8.53;74.61;99864.44;4140391;28;20463;-63
2023/03/26 09:27:23;;;;;;;;;;;;;;;8.54;74.19;99868.78;4139982;28;20101;-64
2023/03/26 09:29:40;;;;;;;;;;;;;;;8.52;74.01;99873.53;4141527;28;20028;-63
2023/03/26 09:32:01;;;;;;;;;;;;;;;8.52;73.29;99852.81;4139926;28;20016;-63
2023/03/26 09:34:11;;;;;;;;;;;;;;;8.52;73.49;99868.97;4140474;28;20021;-63
2023/03/26 09:36:20;;;;;;;;;;;;;;;8.54;73.58;99852.63;4140452;28;20016;-64
2023/03/26 09:38:28;;;;;;;;;;;;;;;8.57;73.97;99853.09;4126228;28;20029;-62
2023/03/26 09:40:36;;;;;;;;;;;;;;;8.60;74.08;99847.34;4126878;28;20013;-63
2023/03/26 09:42:42;;;;;;;;;;;;;;;8.62;74.04;99856.09;4121419;28;20471;-62
2023/03/26 09:44:59;;;;;;;;;;;;;;;8.62;74.23;99839.09;4123148;28;20025;-63
2023/03/26 09:47:22;;;;;;;;;;;;;;;8.70;73.85;99848.91;4120328;28;20139;-59
2023/03/26 09:49:36;;;;;;;;;;;;;;;8.72;73.57;99850.41;4119958;28;20033;-65
2023/03/26 09:51:45;;;;;;;;;;;;;;;8.75;73.47;99860.81;4118158;28;20266;-61
2023/03/26 09:54:02;;;;;;;;;;;;;;;8.75;72.62;99855.44;4122498;28;20009;-61
2023/03/26 09:56:06;;;;;;;;;;;;;;;8.79;72.01;99856.72;4120928;28;20089;-64
2023/03/26 09:58:19;;;;;;;;;;;;;;;8.80;71.62;99854.88;4122890;28;20021;-65
2023/03/26 10:00:22;;;;;;;;;;;;;;;8.83;71.57;99851.81;4121765;28;20029;-61
2023/03/26 10:02:51;;;;;;;;;;;;;;;8.88;71.98;99862.00;4122506;28;20020;-62
2023/03/26 10:05:12;;;;;;;;;;;;;;;8.91;71.42;99869.72;4091818;28;20033;-61
2023/03/26 10:07:21;;;;;;;;;;;;;;;8.92;70.46;99866.84;4122725;28;20060;-61
2023/03/26 10:09:26;;;;;;;;;;;;;;;8.94;70.48;99864.78;4123087;28;20024;-63
2023/03/26 10:11:32;;;;;;;;;;;;;;;8.95;70.16;99865.59;4122423;28;20019;-63
2023/03/26 10:13:36;;;;;;;;;;;;;;;8.99;69.72;99867.72;4123441;28;20351;-66
2023/03/26 10:15:43;;;;;;;;;;;;;;;9.02;70.97;99853.91;4122660;28;20377;-65
2023/03/26 10:17:46;;;;;;;;;;;;;;;9.07;71.40;99866.78;4122819;28;20122;-66
2023/03/26 10:19:51;;;;;;;;;;;;;;;9.09;70.73;99862.06;4122925;28;20363;-65
2023/03/26 10:21:55;;;;;;;;;;;;;;;9.10;69.81;99862.91;4127447;28;20032;-66
2023/03/26 10:24:04;;;;;;;;;;;;;;;9.12;70.02;99861.69;4128340;28;20037;-66
2023/03/26 10:26:17;;;;;;;;;;;;;;;9.13;69.22;99863.34;4128296;28;20020;-66
2023/03/26 10:28:23;;;;;;;;;;;;;;;9.13;69.22;99857.97;4137572;28;20867;-66
2023/03/26 10:30:29;;;;;;;;;;;;;;;9.15;69.25;99858.63;4144168;28;20016;-64
2023/03/26 10:32:38;;;;;;;;;;;;;;;9.16;68.57;99854.88;4152076;28;20080;-66
2023/03/26 10:34:52;;;;;;;;;;;;;;;9.16;68.74;99849.50;4138399;28;20400;-66
2023/03/26 10:36:55;;;;;;;;;;;;;;;9.18;68.87;99860.09;4138037;28;20101;-64
2023/03/26 10:39:00;;;;;;;;;;;;;;;9.19;69.09;99861.78;4133399;28;20032;-63
2023/03/26 10:41:06;;;;;;;;;;;;;;;9.19;68.73;99851.81;4149769;28;20040;-66
2023/03/26 10:43:14;;;;;;;;;;;;;;;9.18;68.43;99855.56;4136617;28;20020;-65
2023/03/26 10:45:21;;;;;;;;;;;;;;;9.19;68.86;99859.91;4142824;28;20032;-64
2023/03/26 10:47:32;;;;;;;;;;;;;;;9.18;68.05;99863.63;4125856;28;20033;-64
2023/03/26 10:49:48;;;;;;;;;;;;;;;9.16;67.71;99868.34;4153518;28;19934;-64
2023/03/26 10:51:52;;;;;;;;;;;;;;;9.15;67.25;99861.31;4137566;28;20009;-64
2023/03/26 10:53:56;;;;;;;;;;;;;;;9.16;67.43;99854.06;4136626;28;20041;-62
2023/03/26 10:56:00;;;;;;;;;;;;;;;9.19;68.44;99861.78;4137205;28;20025;-66
2023/03/26 10:58:05;;;;;;;;;;;;;;;9.19;67.77;99851.00;4137674;28;20456;-64
2023/03/26 11:00:23;;;;;;;;;;;;;;;9.20;68.58;99858.88;4137599;28;20119;-64
2023/03/26 11:02:27;;;;;;;;;;;;;;;9.22;68.68;99853.31;4133003;28;20012;-64
2023/03/26 11:04:31;;;;;;;;;;;;;;;9.25;68.31;99855.63;4137837;28;20454;-63
2023/03/26 11:06:37;;;;;;;;;;;;;;;9.26;67.06;99853.75;4158484;28;20016;-64
2023/03/26 11:08:40;;;;;;;;;;;;;;;9.27;67.28;99852.75;4138010;28;20020;-64
2023/03/26 11:10:45;;;;;;;;;;;;;;;9.26;67.37;99849.19;4137374;28;20482;-64
2023/03/26 11:12:48;;;;;;;;;;;;;;;9.25;66.42;99847.53;4137484;28;20028;-64
2023/03/26 11:14:53;;;;;;;;;;;;;;;9.26;67.62;99856.44;4137846;28;20017;-64
2023/03/26 11:16:58;;;;;;;;;;;;;;;9.29;67.21;99848.81;4137581;28;20021;-64
2023/03/26 11:19:00;;;;;;;;;;;;;;;9.32;66.81;99847.59;4138457;28;20045;-64
2023/03/26 11:21:04;;;;;;;;;;;;;;;9.31;66.61;99843.22;4138220;28;20331;-64
2023/03/26 11:23:18;;;;;;;;;;;;;;;9.32;66.64;99845.72;4137244;28;20051;-63
2023/03/26 11:25:30;;;;;;;;;;;;;;;9.34;66.53;99848.25;4137800;28;20471;-65